Stations météo

réclame
Mon MeteoGroup
Lons-Le-Saunier, France (7390): Température de l'air & dewpoint: 11.08.2019 15:00:00 - 17.08.2019 15:00:00 (CEST)Lons-Le-Saunier, France (7390): Vitesse du vent & gusts: 11.08.2019 15:00:00 - 17.08.2019 15:00:00 (CEST)Lons-Le-Saunier, France (7390): Direction du vent: 11.08.2019 15:00:00 - 17.08.2019 15:00:00 (CEST)Lons-Le-Saunier, France (7390): Quantités de précipitations: 11.08.2019 15:00:00 - 17.08.2019 15:00:00 (CEST)
Date & Time tt [°C] td [°C] ff [km/h] ff [knt] fx [km/h] fx [knt] dd rr [mm]
17.08.2019 15:00:00 25,3 13,8 22 12 37 20 SW 0,0
17.08.2019 14:00:00 26,4 13,8 26 14 39 21 SW -
17.08.2019 13:00:00 25,8 15,5 15 8 26 14 SW 0,0
17.08.2019 12:00:00 24,7 15,1 5 3 16 9 SW 0,0
17.08.2019 11:00:00 23,4 15,7 9 5 18 10 SSW 0,0
17.08.2019 10:00:00 21,6 14,7 9 5 15 8 S 0,0
17.08.2019 09:00:00 19,6 13,5 5 3 9 5 SSE 0,0
17.08.2019 08:00:00 19,1 12,6 8 4 11 6 S -
17.08.2019 07:00:00 17,4 12,1 9 5 13 7 SE 0,0
17.08.2019 06:00:00 17,0 12,3 11 6 18 10 SSE 0,0
17.08.2019 05:00:00 16,6 12,7 9 5 16 9 SSW 0,0
17.08.2019 04:00:00 18,2 11,5 9 5 16 9 SE 0,0
17.08.2019 03:00:00 18,2 12,4 11 6 16 9 SE 0,0
17.08.2019 02:00:00 17,9 13,4 9 5 15 8 SE -
17.08.2019 01:00:00 18,3 13,6 9 5 15 8 SE 0,0
17.08.2019 00:00:00 18,4 13,5 9 5 13 7 SE 0,0
16.08.2019 23:00:00 18,2 13,1 8 4 13 7 ESE 0,0
16.08.2019 22:00:00 18,3 13,2 9 5 13 7 SE 0,0
16.08.2019 21:00:00 20,1 12,6 8 4 9 5 SE 0,0
16.08.2019 20:00:00 21,8 11,5 5 3 11 6 SW -
16.08.2019 19:00:00 23,4 12,4 9 5 15 8 SW 0,0
16.08.2019 18:00:00 24,8 13,4 8 4 15 8 WSW 0,0
16.08.2019 17:00:00 24,2 12,2 8 4 13 7 WSW 0,0
16.08.2019 16:00:00 23,8 13,1 5 3 16 9 SE 0,0
16.08.2019 15:00:00 23,5 12,8 11 6 21 11 NW 0,0
16.08.2019 14:00:00 22,6 11,9 11 6 22 12 NNW -
16.08.2019 13:00:00 22,2 13,8 9 5 18 10 NW 0,0
16.08.2019 12:00:00 22,0 14,1 5 3 13 7 N 0,0
16.08.2019 11:00:00 20,7 14,1 5 3 15 8 E 0,0
16.08.2019 10:00:00 18,5 13,8 9 5 15 8 NW 0,0
16.08.2019 09:00:00 18,6 13,2 2 1 13 7 E 0,0
16.08.2019 08:00:00 14,8 12,1 5 3 13 7 E -
16.08.2019 07:00:00 13,0 11,2 9 5 13 7 ESE 0,0
16.08.2019 06:00:00 13,2 11,3 8 4 9 5 ESE 0,0
16.08.2019 05:00:00 13,6 11,1 8 4 13 7 ESE 0,0
16.08.2019 04:00:00 14,2 11,4 8 4 11 6 SE 0,0
16.08.2019 03:00:00 14,7 11,8 9 5 11 6 SE 0,0
16.08.2019 02:00:00 15,0 12,1 9 5 11 6 SE -
16.08.2019 01:00:00 14,8 12,5 4 2 11 6 E 0,0
16.08.2019 00:00:00 15,8 12,4 8 4 11 6 SE 0,0
15.08.2019 23:00:00 16,4 12,6 8 4 11 6 SE 0,0
15.08.2019 22:00:00 18,0 12,0 4 2 9 5 S 0,0
15.08.2019 21:00:00 18,8 11,8 8 4 18 10 WSW 0,0
15.08.2019 20:00:00 20,8 12,2 13 7 18 10 W -
15.08.2019 19:00:00 21,2 12,1 11 6 22 12 W 0,0
15.08.2019 18:00:00 21,4 12,5 11 6 28 15 WSW 0,0
15.08.2019 17:00:00 21,9 13,8 15 8 37 20 WSW 0,0
15.08.2019 16:00:00 21,0 12,4 13 7 35 19 WSW 0,0
15.08.2019 15:00:00 20,9 17,1 13 7 24 13 SSW 0,0
15.08.2019 14:00:00 17,8 14,7 11 6 26 14 WSW -
15.08.2019 13:00:00 17,7 15,9 13 7 22 12 SSW 0,4
15.08.2019 12:00:00 18,4 14,9 9 5 24 13 S 0,0
15.08.2019 11:00:00 17,3 14,8 18 10 29 16 SW 0,0
15.08.2019 10:00:00 19,0 14,5 9 5 15 8 WSW 0,0
15.08.2019 09:00:00 18,6 14,1 8 4 15 8 SSE 0,0
15.08.2019 08:00:00 16,2 14,0 8 4 18 10 ESE -
15.08.2019 07:00:00 17,3 12,6 9 5 16 9 S 0,0
15.08.2019 06:00:00 17,7 11,3 8 4 13 7 S 0,0
15.08.2019 05:00:00 17,1 11,8 9 5 13 7 SSE 0,0
15.08.2019 04:00:00 16,9 11,6 8 4 13 7 SSE 0,0
15.08.2019 03:00:00 17,2 11,5 11 6 15 8 SE 0,0
15.08.2019 02:00:00 16,3 10,8 11 6 15 8 SE -
15.08.2019 01:00:00 15,8 10,5 11 6 16 9 SE 0,0
15.08.2019 00:00:00 15,9 10,4 9 5 15 8 ESE 0,0
14.08.2019 23:00:00 16,3 10,8 9 5 13 7 SE 0,0
14.08.2019 22:00:00 17,8 11,4 9 5 11 6 SE 0,0
14.08.2019 21:00:00 19,9 11,6 4 2 5 3 E 0,0
14.08.2019 20:00:00 23,9 10,2 2 1 9 5 WNW -
14.08.2019 19:00:00 23,9 10,2 4 2 15 8 NW 0,0
14.08.2019 18:00:00 24,0 11,0 8 4 18 10 NW 0,0
14.08.2019 17:00:00 23,5 10,2 9 5 24 13 NNW 0,0
14.08.2019 16:00:00 23,4 11,4 11 6 24 13 N 0,0
14.08.2019 15:00:00 - - - - - - - -
14.08.2019 14:00:00 22,3 11,1 11 6 24 13 N -
14.08.2019 13:00:00 21,3 9,5 13 7 21 11 N 0,0
14.08.2019 12:00:00 20,2 10,6 9 5 22 12 NNW 0,0
14.08.2019 11:00:00 18,2 11,5 11 6 16 9 NW 0,0
14.08.2019 10:00:00 16,9 11,2 5 3 11 6 NNW 0,0
14.08.2019 09:00:00 14,9 10,1 8 4 9 5 ESE 0,0
14.08.2019 08:00:00 11,1 8,5 5 3 13 7 ESE -
14.08.2019 07:00:00 11,1 8,0 9 5 16 9 ESE 0,0
14.08.2019 06:00:00 11,3 8,2 11 6 16 9 ESE 0,0
14.08.2019 05:00:00 11,3 8,5 5 3 11 6 E 0,0
14.08.2019 04:00:00 11,6 8,6 8 4 13 7 E 0,0
14.08.2019 03:00:00 11,7 9,1 8 4 13 7 ESE 0,0
14.08.2019 02:00:00 12,3 9,3 9 5 11 6 ESE -
14.08.2019 01:00:00 13,1 9,5 8 4 24 13 E 0,0
14.08.2019 00:00:00 14,5 9,5 8 4 11 6 ESE 0,0
13.08.2019 23:00:00 15,4 9,5 8 4 9 5 E 0,0
13.08.2019 22:00:00 15,7 10,2 8 4 11 6 ESE 0,0
13.08.2019 21:00:00 16,3 10,2 9 5 13 7 ENE 0,0
13.08.2019 20:00:00 19,2 9,1 5 3 15 8 N -
13.08.2019 19:00:00 20,4 9,9 9 5 18 10 NW 0,0
13.08.2019 18:00:00 20,9 9,2 8 4 21 11 NNW 0,0
13.08.2019 17:00:00 20,5 10,6 8 4 24 13 NNW 0,0
13.08.2019 16:00:00 19,9 9,2 9 5 22 12 NW 0,0
13.08.2019 15:00:00 20,0 11,2 13 7 28 15 NNW 0,0
13.08.2019 14:00:00 19,3 11,3 16 9 24 13 N -
13.08.2019 13:00:00 17,6 10,5 13 7 24 13 NW 0,0
13.08.2019 12:00:00 18,2 11,3 9 5 18 10 NNW 0,0
13.08.2019 11:00:00 17,6 11,2 8 4 18 10 NE 0,0
13.08.2019 10:00:00 15,9 13,2 8 4 16 9 NNE 0,0
13.08.2019 09:00:00 14,4 12,4 9 5 18 10 NNW 0,0
13.08.2019 08:00:00 13,4 12,8 4 2 8 4 SE -
13.08.2019 07:00:00 12,6 12,0 4 2 8 4 WSW 0,0
13.08.2019 06:00:00 13,1 12,0 4 2 9 5 SSW 0,0
13.08.2019 05:00:00 13,7 12,1 2 1 11 6 SSE 0,0
13.08.2019 04:00:00 14,0 12,2 8 4 11 6 SE 0,0
13.08.2019 03:00:00 14,3 12,3 8 4 13 7 SE 0,0
13.08.2019 02:00:00 15,1 13,1 8 4 15 8 SE -
13.08.2019 01:00:00 15,9 13,7 8 4 11 6 SE 0,0
13.08.2019 00:00:00 16,8 14,8 5 3 13 7 SSW 0,0
12.08.2019 23:00:00 17,1 15,1 4 2 8 4 SE 0,0
12.08.2019 22:00:00 17,7 14,4 4 2 8 4 E 0,0
12.08.2019 21:00:00 19,3 13,9 5 3 11 6 S 0,0
12.08.2019 20:00:00 20,0 14,1 8 4 15 8 SW -
12.08.2019 19:00:00 21,2 14,6 8 4 18 10 SSW 0,0
12.08.2019 18:00:00 22,1 13,4 9 5 21 11 WSW 0,0
12.08.2019 17:00:00 21,7 14,3 9 5 24 13 SW 0,0
12.08.2019 16:00:00 21,0 13,2 5 3 18 10 SSW 0,0
12.08.2019 15:00:00 19,9 14,0 8 4 15 8 SE 0,0
12.08.2019 14:00:00 18,7 13,1 8 4 15 8 WNW -
12.08.2019 13:00:00 18,2 14,3 8 4 13 7 W 0,0
12.08.2019 12:00:00 16,6 14,2 4 2 11 6 WSW 0,0
12.08.2019 11:00:00 15,0 14,2 5 3 13 7 W 0,0
12.08.2019 10:00:00 14,4 14,2 4 2 16 9 NE 0,4
12.08.2019 09:00:00 13,6 13,6 9 5 18 10 ESE 1,0
12.08.2019 08:00:00 13,6 13,4 11 6 16 9 WSW -
12.08.2019 07:00:00 13,3 13,3 5 3 9 5 E 0,0
12.08.2019 06:00:00 12,8 12,8 8 4 11 6 E 0,0
12.08.2019 05:00:00 13,1 12,9 8 4 11 6 ESE 0,0
12.08.2019 04:00:00 13,6 13,3 2 1 9 5 SE 0,0
12.08.2019 03:00:00 13,8 13,5 4 2 16 9 E 0,0
12.08.2019 02:00:00 14,1 13,8 8 4 13 7 E -
12.08.2019 01:00:00 14,1 13,9 4 2 8 4 WNW 0,0
12.08.2019 00:00:00 13,9 13,7 4 2 15 8 WNW 0,0
11.08.2019 23:00:00 14,0 13,8 9 5 16 9 WNW 0,4
11.08.2019 22:00:00 14,5 14,2 4 2 8 4 W 0,0
11.08.2019 21:00:00 14,6 14,0 2 1 15 8 E 0,2
11.08.2019 20:00:00 14,4 13,6 13 7 24 13 E -
11.08.2019 19:00:00 14,2 12,6 11 6 24 13 NE 0,2
11.08.2019 18:00:00 13,8 13,6 9 5 22 12 NNW 2,0
11.08.2019 17:00:00 14,4 14,1 13 7 31 17 NW 5,0
11.08.2019 16:00:00 14,8 14,0 24 13 42 23 NW 3,0
11.08.2019 15:00:00 18,1 13,4 28 15 50 27 NW 0,0

tt = Température de l'air
td = dewpoint
ff = Vitesse du vent
fx = gusts
dd = Direction du vent
rr = Quantités de précipitations

stations d'obs. à proximité